Time;durP1;ratioP1;P1;durP2;ratioP2;P2;SDS_P1;SDS_P2;PMS_P1;PMS_P2;Temp;Humidity;BMP_temperature;BMP_pressure;BME280_temperature;BME280_humidity;BME280_pressure;Samples;Min_cycle;Max_cycle;Signal;HPM_P1;HPM_P2
2022/04/01 00:00:12;;;;;;;0.90;0.90;;;11.30;99.90;;;;;;5040169;28;20736;-71
2022/04/01 00:02:38;;;;;;;1.52;1.20;;;11.30;99.90;;;;;;5062403;28;20088;-71
2022/04/01 00:05:06;;;;;;;1.80;1.70;;;11.30;99.90;;;;;;5058446;28;20047;-71
2022/04/01 00:07:32;;;;;;;1.60;1.50;;;11.30;99.90;;;;;;5059263;28;20087;-71
2022/04/01 00:09:58;;;;;;;1.58;1.48;;;11.30;99.90;;;;;;5059841;28;20421;-71
2022/04/01 00:12:24;;;;;;;1.80;1.70;;;11.20;99.90;;;;;;5061853;28;20033;-71
2022/04/01 00:14:50;;;;;;;1.73;1.63;;;11.20;99.90;;;;;;5037777;28;20177;-71
2022/04/01 00:17:15;;;;;;;1.85;1.70;;;11.20;99.90;;;;;;5056013;28;20044;-71
2022/04/01 00:19:41;;;;;;;1.83;1.67;;;11.20;99.90;;;;;;5050978;28;20029;-70
2022/04/01 00:22:06;;;;;;;1.83;1.73;;;11.20;99.90;;;;;;5052542;28;20087;-71
2022/04/01 00:24:33;;;;;;;2.35;2.17;;;11.30;99.90;;;;;;5057106;28;20040;-71
2022/04/01 00:27:00;;;;;;;2.10;2.00;;;11.10;99.90;;;;;;5058395;28;20060;-71
2022/04/01 00:29:25;;;;;;;1.98;1.88;;;11.10;99.90;;;;;;5056044;28;20044;-71
2022/04/01 00:31:58;;;;;;;2.65;2.13;;;11.10;99.90;;;;;;5058480;28;20037;-71
2022/04/01 00:34:33;;;;;;;2.03;1.75;;;11.10;99.90;;;;;;5053377;28;20121;-71
2022/04/01 00:37:01;;;;;;;2.28;2.08;;;11.10;99.90;;;;;;5056629;28;20533;-71
2022/04/01 00:39:29;;;;;;;2.20;2.10;;;11.10;99.90;;;;;;5054727;28;20048;-71
2022/04/01 00:41:57;;;;;;;2.50;2.30;;;11.10;99.90;;;;;;5060962;28;20041;-71
2022/04/01 00:44:25;;;;;;;2.72;2.53;;;11.10;99.90;;;;;;5055682;28;21587;-71
2022/04/01 00:46:52;;;;;;;2.40;2.25;;;11.00;99.90;;;;;;5057995;28;20044;-71
2022/04/01 00:49:19;;;;;;;2.10;1.95;;;11.00;99.90;;;;;;5051829;28;20098;-71
2022/04/01 00:51:47;;;;;;;2.47;2.28;;;11.00;99.90;;;;;;5051268;28;20051;-71
2022/04/01 00:54:13;;;;;;;2.38;2.17;;;11.10;99.90;;;;;;5051796;28;20500;-71
2022/04/01 00:56:40;;;;;;;2.05;1.95;;;11.10;99.90;;;;;;5053007;28;20596;-71
2022/04/01 00:59:08;;;;;;;2.45;2.13;;;11.20;99.90;;;;;;5056112;28;20115;-71
2022/04/01 01:01:34;;;;;;;2.55;2.22;;;11.20;99.90;;;;;;5051151;28;20123;-71
2022/04/01 01:04:02;;;;;;;2.97;2.10;;;11.20;99.90;;;;;;5055935;28;20183;-71
2022/04/01 01:06:30;;;;;;;2.92;2.53;;;11.30;99.90;;;;;;5059024;28;20059;-71
2022/04/01 01:08:56;;;;;;;2.83;2.45;;;11.20;99.90;;;;;;5055276;28;20507;-71
2022/04/01 01:11:21;;;;;;;2.22;2.03;;;11.20;99.90;;;;;;5052208;28;20037;-71
2022/04/01 01:13:47;;;;;;;2.50;2.30;;;11.20;99.90;;;;;;5056175;28;20033;-71
2022/04/01 01:16:13;;;;;;;2.13;2.00;;;11.20;99.90;;;;;;5047857;28;20068;-71
2022/04/01 01:18:39;;;;;;;2.17;1.98;;;11.20;99.90;;;;;;5051556;28;20048;-71
2022/04/01 01:21:09;;;;;;;2.33;2.13;;;11.10;99.90;;;;;;5049448;28;20045;-71
2022/04/01 01:23:36;;;;;;;2.13;2.03;;;11.10;99.90;;;;;;5054606;28;20124;-71
2022/04/01 01:26:03;;;;;;;3.70;2.45;;;11.20;99.90;;;;;;5056669;28;20939;-70
2022/04/01 01:28:29;;;;;;;2.47;1.95;;;11.10;99.90;;;;;;5037933;28;20060;-71
2022/04/01 01:30:55;;;;;;;2.42;2.05;;;11.00;99.90;;;;;;5051418;28;20094;-71
2022/04/01 01:33:24;;;;;;;2.75;2.20;;;11.00;99.90;;;;;;5054013;28;20032;-71
2022/04/01 01:35:50;;;;;;;2.20;2.00;;;11.00;99.90;;;;;;5048510;28;20103;-71
2022/04/01 01:38:17;;;;;;;2.35;2.15;;;11.10;99.90;;;;;;5052251;28;20549;-71
2022/04/01 01:40:45;;;;;;;3.42;2.08;;;11.10;99.90;;;;;;5052975;28;20052;-71
2022/04/01 01:43:12;;;;;;;3.00;2.20;;;11.20;99.90;;;;;;5055108;28;20146;-71
2022/04/01 01:45:37;;;;;;;2.42;2.22;;;11.20;99.90;;;;;;5055872;28;20124;-71
2022/04/01 01:48:04;;;;;;;2.72;1.95;;;11.20;99.90;;;;;;5049132;28;20021;-70
2022/04/01 01:55:58;;;;;;;2.20;1.90;;;11.20;99.90;;;;;;5050038;28;20135;-71
2022/04/01 01:58:23;;;;;;;2.63;2.40;;;11.20;99.90;;;;;;5059337;28;20123;-71
2022/04/01 02:00:49;;;;;;;2.13;1.92;;;11.10;99.90;;;;;;5037433;28;20451;-71
2022/04/01 02:03:16;;;;;;;2.60;2.40;;;10.90;99.90;;;;;;5049990;28;20052;-71
2022/04/01 02:05:41;;;;;;;5.10;2.20;;;10.90;99.90;;;;;;5052139;28;20041;-71
2022/04/01 02:08:08;;;;;;;3.35;2.00;;;10.90;99.90;;;;;;5055734;28;20528;-71
2022/04/01 02:10:34;;;;;;;2.75;2.55;;;11.00;99.90;;;;;;5048502;28;20044;-71
2022/04/01 02:13:00;;;;;;;2.03;1.83;;;11.00;99.90;;;;;;5050907;28;20049;-71
2022/04/01 02:15:25;;;;;;;2.55;2.15;;;11.00;99.90;;;;;;5047715;28;20049;-71
2022/04/01 02:17:51;;;;;;;2.30;2.10;;;11.00;99.90;;;;;;5050371;28;20888;-71
2022/04/01 02:20:17;;;;;;;2.05;1.85;;;11.00;99.90;;;;;;5046900;28;20044;-71
2022/04/01 02:22:44;;;;;;;3.78;2.45;;;11.00;99.90;;;;;;5050935;28;20033;-71
2022/04/01 02:25:11;;;;;;;3.67;2.28;;;11.00;99.90;;;;;;5053021;28;20539;-71
2022/04/01 02:27:37;;;;;;;3.90;2.42;;;11.00;99.90;;;;;;5055107;28;20076;-71
2022/04/01 02:30:10;;;;;;;3.10;2.08;;;11.10;99.90;;;;;;5058613;28;20071;-71
2022/04/01 02:32:40;;;;;;;2.92;2.42;;;11.00;99.90;;;;;;5052078;28;20060;-70
2022/04/01 02:35:07;;;;;;;3.90;2.22;;;11.00;99.90;;;;;;5054239;28;20048;-71
2022/04/01 02:37:33;;;;;;;4.45;2.42;;;11.00;99.90;;;;;;5048761;28;20037;-71
2022/04/01 02:39:59;;;;;;;3.35;2.20;;;11.00;99.90;;;;;;5053738;28;20287;-71
2022/04/01 02:42:25;;;;;;;1.90;1.70;;;11.00;99.90;;;;;;5047647;28;20563;-71
2022/04/01 02:44:51;;;;;;;4.40;2.30;;;11.10;99.90;;;;;;5052177;28;20048;-71
2022/04/01 02:47:17;;;;;;;3.00;2.17;;;11.10;99.90;;;;;;5056188;28;20060;-71
2022/04/01 02:49:42;;;;;;;3.05;2.35;;;11.10;99.90;;;;;;5063825;28;20033;-71
2022/04/01 02:52:08;;;;;;;2.22;2.00;;;11.10;99.90;;;;;;5053301;28;20055;-71
2022/04/01 02:54:34;;;;;;;1.95;1.85;;;11.10;99.90;;;;;;5042641;28;20632;-71
2022/04/01 02:57:00;;;;;;;2.42;2.05;;;11.00;99.90;;;;;;5051676;28;20072;-71
2022/04/01 02:59:26;;;;;;;3.72;2.28;;;11.00;99.90;;;;;;5057971;28;20657;-70
2022/04/01 03:01:52;;;;;;;2.05;1.85;;;11.00;99.90;;;;;;5053396;28;20079;-71
2022/04/01 03:04:18;;;;;;;4.50;2.35;;;11.10;99.90;;;;;;5037457;28;20482;-71
2022/04/01 03:06:44;;;;;;;3.42;2.22;;;11.10;99.90;;;;;;5051812;28;20485;-71
2022/04/01 03:09:10;;;;;;;2.65;2.20;;;11.10;99.90;;;;;;5048988;28;20072;-70
2022/04/01 03:11:37;;;;;;;5.22;2.17;;;11.10;99.90;;;;;;5049103;28;20048;-71
2022/04/01 03:14:04;;;;;;;2.97;1.70;;;11.20;99.90;;;;;;5048412;28;20083;-71
2022/04/01 03:16:29;;;;;;;2.17;1.60;;;11.20;99.90;;;;;;5045450;28;20056;-71
2022/04/01 03:18:59;;;;;;;3.65;1.70;;;11.20;99.90;;;;;;5031182;28;20037;-70
2022/04/01 03:21:26;;;;;;;2.83;1.77;;;11.20;99.90;;;;;;5051912;28;20580;-71
2022/04/01 03:23:52;;;;;;;5.07;1.90;;;11.20;99.90;;;;;;5055377;28;20052;-71
2022/04/01 03:26:20;;;;;;;1.50;1.40;;;11.20;99.90;;;;;;5058736;28;20056;-71
2022/04/01 03:28:46;;;;;;;2.40;1.70;;;11.20;99.90;;;;;;5053589;28;20032;-71
2022/04/01 03:31:14;;;;;;;2.78;1.75;;;11.20;99.90;;;;;;5053144;28;20044;-71
2022/04/01 03:33:41;;;;;;;1.88;1.52;;;11.20;99.90;;;;;;5057799;28;20406;-70
2022/04/01 03:36:08;;;;;;;2.03;1.83;;;11.20;99.90;;;;;;5063573;28;20041;-71
2022/04/01 03:38:35;;;;;;;1.70;1.60;;;11.20;99.90;;;;;;5057674;28;20076;-71
2022/04/01 03:41:02;;;;;;;1.70;1.60;;;11.20;99.90;;;;;;5057621;28;20033;-71
2022/04/01 03:43:28;;;;;;;2.03;1.60;;;11.20;99.90;;;;;;5057379;28;20105;-71
2022/04/01 03:45:55;;;;;;;2.38;1.90;;;11.20;99.90;;;;;;5057947;28;20053;-71
2022/04/01 03:48:53;;;;;;;3.13;2.22;;;11.20;99.90;;;;;;5053756;28;20033;-71
2022/04/01 03:51:21;;;;;;;3.30;1.77;;;11.20;99.90;;;;;;5058811;28;20041;-71
2022/04/01 03:54:15;;;;;;;2.92;2.15;;;11.30;99.90;;;;;;5059542;28;20439;-71
2022/04/01 03:56:48;;;;;;;1.88;1.30;;;11.20;99.90;;;;;;5055619;28;20541;-71
2022/04/01 03:59:17;;;;;;;2.00;1.30;;;11.30;99.90;;;;;;5053778;28;20032;-71
2022/04/01 04:01:43;;;;;;;1.67;1.17;;;11.30;99.90;;;;;;5053965;28;20032;-71
2022/04/01 04:04:13;;;;;;;3.03;1.02;;;11.30;99.90;;;;;;5052400;28;20044;-71
2022/04/01 04:06:40;;;;;;;3.40;1.27;;;11.20;99.90;;;;;;5059931;28;20036;-71
2022/04/01 04:09:06;;;;;;;2.53;1.10;;;11.30;99.90;;;;;;5057772;28;20036;-71
2022/04/01 04:11:33;;;;;;;0.73;0.73;;;11.30;99.90;;;;;;5055181;28;20051;-71
2022/04/01 04:14:01;;;;;;;2.00;0.98;;;11.30;99.90;;;;;;5049569;28;20032;-71
2022/04/01 04:16:44;;;;;;;1.38;0.80;;;11.30;99.90;;;;;;5062504;28;20048;-71
2022/04/01 04:19:24;;;;;;;1.85;0.70;;;11.40;99.90;;;;;;5053749;28;20021;-71
2022/04/01 04:22:02;;;;;;;1.33;1.08;;;11.30;99.90;;;;;;5054199;28;20154;-71
2022/04/01 04:24:39;;;;;;;1.38;1.10;;;11.40;99.90;;;;;;5056042;28;20090;-71
2022/04/01 04:27:15;;;;;;;1.35;1.17;;;11.40;99.90;;;;;;5057699;28;20523;-71
2022/04/01 04:29:49;;;;;;;1.17;1.08;;;11.40;99.90;;;;;;5054546;28;20109;-71
2022/04/01 04:32:28;;;;;;;1.00;1.00;;;11.30;99.90;;;;;;5054246;28;20074;-71
2022/04/01 04:34:56;;;;;;;0.90;0.90;;;11.20;99.90;;;;;;5057790;28;20105;-70
2022/04/01 04:37:27;;;;;;;0.80;0.80;;;11.10;99.90;;;;;;5051879;28;20098;-71
2022/04/01 04:39:53;;;;;;;1.30;1.20;;;11.10;99.90;;;;;;5049405;28;20110;-71
2022/04/01 04:42:20;;;;;;;1.20;1.00;;;11.10;99.90;;;;;;5053849;28;20067;-71
2022/04/01 04:44:48;;;;;;;1.17;1.10;;;11.10;99.90;;;;;;5052461;28;20032;-71
2022/04/01 04:47:15;;;;;;;1.80;1.10;;;11.10;99.90;;;;;;5058676;28;20040;-70
2022/04/01 04:49:47;;;;;;;1.00;1.00;;;11.20;99.90;;;;;;5058406;28;20485;-71
2022/04/01 04:52:14;;;;;;;;;;;11.20;99.90;;;;;;5061246;28;20048;-71
2022/04/01 04:54:40;;;;;;;1.67;1.30;;;11.20;99.90;;;;;;5058130;28;20296;-71
2022/04/01 04:57:07;;;;;;;2.20;1.83;;;11.20;99.90;;;;;;5055665;28;20094;-70
2022/04/01 04:59:35;;;;;;;2.45;1.60;;;11.20;99.90;;;;;;5054277;28;20080;-71
2022/04/01 05:02:06;;;;;;;1.92;1.58;;;11.10;99.90;;;;;;5057150;28;20037;-71
2022/04/01 05:04:43;;;;;;;3.38;2.65;;;11.00;99.90;;;;;;5049455;28;20041;-71
2022/04/01 05:07:36;;;;;;;3.10;1.50;;;11.10;99.90;;;;;;5033258;28;20041;-70
2022/04/01 05:10:24;;;;;;;2.70;1.42;;;11.10;99.90;;;;;;5059020;28;20095;-71
2022/04/01 05:12:53;;;;;;;3.95;1.73;;;11.10;99.90;;;;;;5052660;28;20099;-70
2022/04/01 05:15:23;;;;;;;2.58;2.20;;;11.10;99.90;;;;;;5047788;28;20048;-71
2022/04/01 05:17:56;;;;;;;6.13;1.95;;;11.20;99.90;;;;;;5055484;28;20040;-71
2022/04/01 05:20:27;;;;;;;2.10;1.88;;;11.20;99.90;;;;;;5055298;28;20029;-70
2022/04/01 05:23:06;;;;;;;2.53;1.75;;;11.20;99.90;;;;;;5057133;28;20793;-70
2022/04/01 05:25:54;;;;;;;2.42;2.22;;;11.20;99.90;;;;;;5060142;28;20776;-71
2022/04/01 05:28:29;;;;;;;2.72;2.13;;;11.20;99.90;;;;;;5053348;28;20032;-71
2022/04/01 05:31:20;;;;;;;3.33;2.75;;;11.20;99.90;;;;;;5056894;28;20473;-71
2022/04/01 05:34:17;;;;;;;3.42;2.53;;;11.20;99.90;;;;;;5056381;28;20691;-71
2022/04/01 05:36:44;;;;;;;2.85;2.55;;;11.20;99.90;;;;;;5051172;28;20048;-70
2022/04/01 05:39:12;;;;;;;3.60;2.88;;;11.20;99.90;;;;;;5046838;28;20051;-70
2022/04/01 05:41:40;;;;;;;3.25;2.75;;;11.20;99.90;;;;;;5051419;28;20044;-71
2022/04/01 05:44:09;;;;;;;3.33;2.80;;;11.20;99.90;;;;;;5048283;28;20585;-71
2022/04/01 05:46:36;;;;;;;3.13;2.53;;;11.20;99.90;;;;;;5056051;28;20044;-71
2022/04/01 05:49:03;;;;;;;3.42;3.05;;;11.20;99.90;;;;;;5057381;28;20032;-70
2022/04/01 05:51:33;;;;;;;3.65;2.88;;;11.20;99.90;;;;;;5044594;28;20029;-71
2022/04/01 05:53:59;;;;;;;3.80;2.78;;;11.20;99.90;;;;;;5052887;28;20033;-70
2022/04/01 05:56:26;;;;;;;3.00;2.63;;;11.30;99.90;;;;;;5053639;28;20052;-70
2022/04/01 05:58:52;;;;;;;4.90;3.20;;;11.30;99.90;;;;;;5054724;28;20430;-71
2022/04/01 06:01:36;;;;;;;3.53;2.63;;;11.30;99.90;;;;;;5052346;28;20037;-70
2022/04/01 06:04:20;;;;;;;3.38;3.08;;;11.30;99.90;;;;;;5050116;28;20040;-71
2022/04/01 06:06:49;;;;;;;3.55;2.88;;;11.30;99.90;;;;;;5047145;28;20127;-71
2022/04/01 06:09:35;;;;;;;3.80;3.35;;;11.40;99.90;;;;;;5046775;28;20047;-69
2022/04/01 06:12:07;;;;;;;5.68;3.00;;;11.30;99.90;;;;;;5054012;28;20131;-71
2022/04/01 06:14:36;;;;;;;3.22;2.70;;;11.40;99.90;;;;;;5056963;28;20043;-71
2022/04/01 06:17:17;;;;;;;3.42;3.13;;;11.40;99.90;;;;;;5048073;28;20041;-71
2022/04/01 06:19:47;;;;;;;2.72;2.47;;;11.40;99.90;;;;;;5052712;28;20497;-70
2022/04/01 06:22:18;;;;;;;3.08;2.78;;;11.30;99.90;;;;;;5046688;28;20044;-71
2022/04/01 06:25:01;;;;;;;3.03;2.70;;;11.30;99.90;;;;;;5060273;28;20044;-71
2022/04/01 06:27:41;;;;;;;3.30;2.80;;;11.30;99.90;;;;;;5053667;28;20131;-71
2022/04/01 06:30:09;;;;;;;4.05;2.65;;;11.30;99.90;;;;;;5050072;28;20124;-71
2022/04/01 06:32:50;;;;;;;3.17;2.55;;;11.30;99.90;;;;;;5056291;28;20041;-71
2022/04/01 06:35:22;;;;;;;3.05;2.50;;;11.30;99.90;;;;;;5053745;28;20488;-71
2022/04/01 06:37:58;;;;;;;2.92;2.63;;;11.30;99.90;;;;;;5056293;28;20098;-71
2022/04/01 06:40:29;;;;;;;3.10;2.60;;;11.30;99.90;;;;;;5048650;28;20051;-71
2022/04/01 06:42:54;;;;;;;3.10;2.80;;;11.20;99.90;;;;;;5054420;28;20036;-71
2022/04/01 06:45:20;;;;;;;3.28;2.97;;;11.30;99.90;;;;;;5052654;28;20507;-70
2022/04/01 06:47:47;;;;;;;2.85;2.65;;;11.20;99.90;;;;;;5047094;28;20260;-70
2022/04/01 06:50:14;;;;;;;2.88;2.58;;;11.30;99.90;;;;;;5053511;28;20253;-71
2022/04/01 06:52:40;;;;;;;3.03;2.42;;;11.30;99.90;;;;;;5054276;28;20044;-71
2022/04/01 06:55:09;;;;;;;4.00;2.70;;;11.30;99.90;;;;;;5063501;28;20033;-71
2022/04/01 06:57:35;;;;;;;2.50;2.30;;;11.30;99.90;;;;;;5064180;28;20032;-70
2022/04/01 07:00:03;;;;;;;3.22;2.40;;;11.40;99.90;;;;;;5058665;28;20040;-71
2022/04/01 07:02:29;;;;;;;2.80;1.90;;;11.40;99.90;;;;;;5058455;28;20048;-70
2022/04/01 07:04:54;;;;;;;1.80;1.70;;;11.40;99.90;;;;;;5057359;28;20855;-70
2022/04/01 07:07:20;;;;;;;1.98;1.80;;;11.50;99.90;;;;;;5055647;28;20052;-71
2022/04/01 07:09:46;;;;;;;2.60;1.45;;;11.50;99.90;;;;;;5051948;28;20048;-71
2022/04/01 07:12:12;;;;;;;1.83;1.42;;;11.50;99.90;;;;;;5058104;28;20052;-71
2022/04/01 07:14:37;;;;;;;1.52;1.23;;;11.50;99.90;;;;;;5061468;28;20416;-70
2022/04/01 07:17:03;;;;;;;1.02;1.00;;;11.50;99.90;;;;;;5055099;28;20056;-70
2022/04/01 07:19:29;;;;;;;1.00;1.00;;;11.50;99.90;;;;;;5055419;28;20125;-70
2022/04/01 07:21:55;;;;;;;1.17;1.10;;;11.50;99.90;;;;;;5056835;28;20064;-70
2022/04/01 07:24:20;;;;;;;1.23;1.15;;;11.40;99.90;;;;;;5045493;28;20527;-70
2022/04/01 07:26:46;;;;;;;0.93;0.82;;;11.40;99.90;;;;;;5055731;28;20060;-71
2022/04/01 07:29:13;;;;;;;0.98;0.80;;;11.40;99.90;;;;;;5051735;28;20040;-70
2022/04/01 07:34:38;;;;;;;0.82;0.73;;;11.50;99.90;;;;;;5055659;28;20114;-70
2022/04/01 07:37:08;;;;;;;1.65;1.00;;;11.60;99.90;;;;;;5060645;28;20463;-70
2022/04/01 07:39:34;;;;;;;1.27;0.90;;;11.70;99.90;;;;;;5047098;28;20059;-71
2022/04/01 07:42:00;;;;;;;0.60;0.60;;;11.80;99.90;;;;;;5054486;28;20048;-70
2022/04/01 07:44:26;;;;;;;0.80;0.80;;;11.80;99.90;;;;;;5052977;28;20565;-70
2022/04/01 07:46:53;;;;;;;0.63;0.63;;;11.80;99.90;;;;;;5053585;28;20028;-70
2022/04/01 07:49:19;;;;;;;0.60;0.60;;;11.80;99.90;;;;;;5044217;28;20032;-70
2022/04/01 07:51:45;;;;;;;0.60;0.60;;;11.80;99.90;;;;;;5034233;28;20355;-70
2022/04/01 07:54:12;;;;;;;0.60;0.60;;;11.90;99.90;;;;;;5051550;28;20045;-70
2022/04/01 07:56:40;;;;;;;0.40;0.40;;;11.90;99.90;;;;;;5052365;28;20052;-70
2022/04/01 07:59:15;;;;;;;0.50;0.47;;;11.90;99.90;;;;;;5050965;28;20044;-70
2022/04/01 08:01:41;;;;;;;0.45;0.40;;;11.80;99.90;;;;;;5055299;28;20028;-70
2022/04/01 08:04:07;;;;;;;0.40;0.40;;;11.70;99.90;;;;;;5053895;28;20159;-70
2022/04/01 08:06:33;;;;;;;0.57;0.50;;;11.60;99.90;;;;;;5054223;28;20564;-70
2022/04/01 08:08:59;;;;;;;0.30;0.30;;;11.70;99.90;;;;;;5054669;28;20036;-70
2022/04/01 08:11:28;;;;;;;0.70;0.47;;;11.70;99.90;;;;;;5049404;28;20112;-70
2022/04/01 08:13:55;;;;;;;0.28;0.28;;;11.80;99.90;;;;;;5052008;28;20118;-71
2022/04/01 08:16:22;;;;;;;0.93;0.63;;;11.80;99.90;;;;;;5050342;28;20033;-70
2022/04/01 08:18:48;;;;;;;0.77;0.50;;;11.80;99.90;;;;;;5049304;28;20041;-71
2022/04/01 08:21:14;;;;;;;0.98;0.70;;;11.80;99.90;;;;;;5052365;28;20145;-70
2022/04/01 08:23:40;;;;;;;0.95;0.55;;;11.90;99.90;;;;;;5058588;28;20688;-70
2022/04/01 08:26:07;;;;;;;0.60;0.57;;;12.00;99.90;;;;;;5056032;28;20029;-70
2022/04/01 08:28:33;;;;;;;0.73;0.60;;;12.00;99.90;;;;;;5058447;28;20028;-70
2022/04/01 08:30:59;;;;;;;0.73;0.60;;;12.10;99.90;;;;;;5054782;28;20037;-70
2022/04/01 08:33:26;;;;;;;0.85;0.68;;;12.10;99.90;;;;;;5055745;28;20039;-70
2022/04/01 08:35:51;;;;;;;0.40;0.40;;;12.10;99.90;;;;;;5050760;28;20037;-70
2022/04/01 08:38:17;;;;;;;0.68;0.65;;;12.20;99.90;;;;;;5053840;28;20467;-70
2022/04/01 08:40:43;;;;;;;0.88;0.45;;;12.10;99.90;;;;;;5059094;28;20084;-70
2022/04/01 08:43:09;;;;;;;0.82;0.40;;;12.10;99.90;;;;;;5046559;28;20556;-70
2022/04/01 08:45:37;;;;;;;0.65;0.60;;;12.10;99.90;;;;;;5055556;28;20053;-70
2022/04/01 08:48:05;;;;;;;0.40;0.40;;;12.10;99.90;;;;;;5051523;28;20033;-70
2022/04/01 08:50:31;;;;;;;0.95;0.63;;;12.10;99.90;;;;;;5056666;28;20045;-70
2022/04/01 08:52:56;;;;;;;0.82;0.30;;;12.20;99.90;;;;;;5055493;28;20139;-71
2022/04/01 08:55:22;;;;;;;0.40;0.40;;;12.20;99.90;;;;;;5057224;28;20107;-71
2022/04/01 08:57:48;;;;;;;0.77;0.40;;;12.20;99.90;;;;;;5059887;28;20036;-70
2022/04/01 09:00:13;;;;;;;0.52;0.43;;;12.00;99.90;;;;;;5050001;28;20040;-70
2022/04/01 09:02:43;;;;;;;0.55;0.45;;;12.00;99.90;;;;;;5054603;28;20516;-70
2022/04/01 09:05:10;;;;;;;2.22;1.38;;;12.00;99.90;;;;;;5053044;28;20401;-71
2022/04/01 09:07:36;;;;;;;0.60;0.55;;;12.00;99.90;;;;;;5058780;28;20087;-70
2022/04/01 09:10:04;;;;;;;0.70;0.60;;;12.00;99.90;;;;;;5051934;28;20112;-70
2022/04/01 09:12:30;;;;;;;0.80;0.60;;;11.80;99.90;;;;;;5045966;28;20520;-70
2022/04/01 09:14:57;;;;;;;0.40;0.40;;;11.50;99.90;;;;;;5054250;28;20048;-70
2022/04/01 09:17:43;;;;;;;0.60;0.60;;;11.30;99.90;;;;;;5055254;28;20167;-70
2022/04/01 09:20:10;;;;;;;0.70;0.60;;;11.10;99.90;;;;;;5050993;28;20044;-70
2022/04/01 09:22:37;;;;;;;0.40;0.40;;;10.90;99.90;;;;;;5029029;28;20094;-70
2022/04/01 09:25:06;;;;;;;2.63;0.85;;;10.80;99.90;;;;;;5051162;28;20412;-70
2022/04/01 09:27:52;;;;;;;0.60;0.57;;;10.80;99.90;;;;;;5050792;28;20101;-70
2022/04/01 09:30:27;;;;;;;0.30;0.30;;;10.80;99.90;;;;;;5054104;28;20126;-70
2022/04/01 09:33:01;;;;;;;0.65;0.40;;;10.80;99.90;;;;;;5047710;28;20033;-70
2022/04/01 09:35:31;;;;;;;0.68;0.55;;;10.80;99.90;;;;;;5050214;28;20075;-70
2022/04/01 09:37:59;;;;;;;1.35;0.52;;;10.80;99.90;;;;;;5046792;28;20807;-70
2022/04/01 09:40:25;;;;;;;0.50;0.30;;;10.80;99.90;;;;;;5055630;28;20604;-70
2022/04/01 09:42:53;;;;;;;0.45;0.38;;;10.80;99.90;;;;;;5057256;28;20319;-70
2022/04/01 09:45:22;;;;;;;0.70;0.70;;;10.80;99.90;;;;;;5055009;28;20048;-70
2022/04/01 09:48:19;;;;;;;0.30;0.30;;;10.70;99.90;;;;;;5057960;28;20498;-70
2022/04/01 09:50:58;;;;;;;13.40;8.05;;;10.50;99.90;;;;;;5040959;28;20045;-70
2022/04/01 09:53:25;;;;;;;30.05;24.15;;;10.40;99.90;;;;;;5050254;28;20034;-71
2022/04/01 09:55:52;;;;;;;1.50;1.40;;;10.50;99.90;;;;;;5050419;28;20048;-70
2022/04/01 09:58:20;;;;;;;1.27;0.50;;;10.50;99.90;;;;;;5054548;28;20037;-70
2022/04/01 10:00:47;;;;;;;0.50;0.50;;;10.40;99.90;;;;;;5051748;28;20036;-70
2022/04/01 10:03:15;;;;;;;1.00;0.50;;;10.20;99.90;;;;;;5050008;28;20036;-70
2022/04/01 10:05:42;;;;;;;0.65;0.65;;;10.00;99.90;;;;;;5046101;28;21516;-70
2022/04/01 10:08:10;;;;;;;1.20;0.95;;;9.90;99.90;;;;;;5043509;28;20120;-70
2022/04/01 10:10:38;;;;;;;1.08;0.98;;;9.70;99.90;;;;;;5048479;28;20053;-70
2022/04/01 10:13:05;;;;;;;2.35;1.25;;;9.60;99.90;;;;;;5051996;28;20037;-70
2022/04/01 10:15:32;;;;;;;0.80;0.77;;;9.40;99.90;;;;;;5035323;28;21026;-70
2022/04/01 10:18:01;;;;;;;1.15;1.05;;;9.40;99.90;;;;;;5054568;28;21781;-70
2022/04/01 10:20:33;;;;;;;1.17;0.98;;;9.30;99.90;;;;;;5050863;28;20037;-70
2022/04/01 10:23:03;;;;;;;;;;;9.30;99.90;;;;;;5053208;28;20110;-70
2022/04/01 10:26:01;;;;;;;1.70;0.90;;;9.30;99.90;;;;;;5051858;28;19974;-70
2022/04/01 10:28:28;;;;;;;1.33;1.23;;;9.20;99.90;;;;;;5051394;28;20047;-70
2022/04/01 10:30:57;;;;;;;1.15;1.05;;;9.20;99.90;;;;;;5049367;28;20035;-69
2022/04/01 10:33:35;;;;;;;1.25;1.15;;;9.10;99.90;;;;;;5049985;28;20564;-70
2022/04/01 10:36:34;;;;;;;1.35;1.13;;;9.00;99.90;;;;;;5052897;28;20143;-70
2022/04/01 10:39:05;;;;;;;2.85;1.25;;;9.00;99.90;;;;;;5048896;28;20057;-69
2022/04/01 10:41:31;;;;;;;1.05;1.00;;;8.90;99.90;;;;;;5046145;28;20063;-70
2022/04/01 10:43:58;;;;;;;1.70;1.42;;;8.90;99.90;;;;;;5056237;28;20757;-69
2022/04/01 10:46:24;;;;;;;1.60;1.50;;;8.90;99.90;;;;;;5053597;28;20731;-70
2022/04/01 10:52:04;;;;;;;1.55;1.45;;;8.80;99.90;;;;;;5046569;28;20055;-70
2022/04/01 10:54:29;;;;;;;1.95;1.50;;;8.80;99.90;;;;;;5049053;28;20039;-70
2022/04/01 10:57:01;;;;;;;1.92;1.50;;;8.80;99.90;;;;;;5050624;28;20048;-70
2022/04/01 10:59:37;;;;;;;2.17;1.52;;;8.80;99.90;;;;;;5054399;28;20051;-71
2022/04/01 11:02:08;;;;;;;2.50;1.90;;;8.80;99.90;;;;;;5049243;28;20029;-69
2022/04/01 11:04:38;;;;;;;2.53;1.70;;;8.90;99.90;;;;;;5047182;28;20441;-70
2022/04/01 11:07:22;;;;;;;10.93;7.55;;;9.10;99.90;;;;;;5050780;28;20320;-70
2022/04/01 11:09:51;;;;;;;5.53;4.07;;;9.30;99.90;;;;;;5051505;28;20039;-72
2022/04/01 11:12:21;;;;;;;10.52;7.57;;;9.30;99.90;;;;;;5050474;28;20041;-67
2022/04/01 11:15:19;;;;;;;6.65;4.80;;;9.50;99.90;;;;;;5055171;28;20040;-72
2022/04/01 11:17:44;;;;;;;4.07;2.67;;;9.70;99.90;;;;;;5055891;28;20063;-71
2022/04/01 11:20:10;;;;;;;9.65;5.75;;;9.80;99.90;;;;;;5053338;28;20033;-71
2022/04/01 11:22:42;;;;;;;8.95;5.20;;;9.70;99.90;;;;;;5062235;28;20094;-71
2022/04/01 11:25:13;;;;;;;1.60;1.50;;;9.80;99.90;;;;;;5045877;28;20041;-71
2022/04/01 11:27:42;;;;;;;;;;;9.80;99.90;;;;;;5052319;28;20488;-71
2022/04/01 11:30:13;;;;;;;1.45;1.23;;;9.70;99.90;;;;;;5045562;28;19920;-71
2022/04/01 11:32:40;;;;;;;1.10;1.00;;;9.70;99.90;;;;;;5051086;28;20097;-70
2022/04/01 11:35:08;;;;;;;2.20;0.93;;;9.60;99.90;;;;;;5051465;28;20024;-71
2022/04/01 11:37:40;;;;;;;1.40;1.30;;;9.60;99.90;;;;;;5052931;28;20059;-71
2022/04/01 11:40:09;;;;;;;;;;;9.50;99.90;;;;;;5037955;28;20946;-71
2022/04/01 11:42:52;;;;;;;1.88;1.15;;;9.50;99.90;;;;;;5047993;28;19924;-71
2022/04/01 11:45:19;;;;;;;2.70;1.30;;;9.50;99.90;;;;;;5049729;28;20456;-69
2022/04/01 11:47:45;;;;;;;1.25;1.15;;;9.50;99.90;;;;;;5056901;28;20029;-70
2022/04/01 11:50:13;;;;;;;2.00;1.25;;;9.40;99.90;;;;;;5050372;28;20304;-71
2022/04/01 11:52:45;;;;;;;1.92;1.48;;;9.40;99.90;;;;;;5050901;28;20071;-70
2022/04/01 11:55:12;;;;;;;2.00;1.58;;;9.40;99.90;;;;;;5040855;28;20581;-70
2022/04/01 11:57:37;;;;;;;2.15;1.80;;;9.50;99.90;;;;;;5035892;28;20708;-71
2022/04/01 12:00:14;;;;;;;2.13;1.95;;;9.30;99.90;;;;;;5059139;28;20067;-70
2022/04/01 12:02:41;;;;;;;2.28;2.13;;;9.20;99.90;;;;;;5051261;28;20086;-71
2022/04/01 12:05:08;;;;;;;2.30;2.10;;;9.20;99.90;;;;;;5053621;28;20139;-71
2022/04/01 12:10:24;;;;;;;2.03;1.92;;;9.40;99.90;;;;;;5054035;28;20045;-70
2022/04/01 12:12:59;;;;;;;1.88;1.60;;;9.40;99.90;;;;;;5053262;28;20189;-71
2022/04/01 12:15:31;;;;;;;1.80;1.70;;;9.20;99.90;;;;;;5049377;28;20037;-70
2022/04/01 12:17:56;;;;;;;1.50;1.40;;;9.30;99.90;;;;;;5057024;28;20568;-71
2022/04/01 12:20:23;;;;;;;1.42;1.33;;;9.30;99.90;;;;;;5039808;28;20187;-71
2022/04/01 12:22:51;;;;;;;1.67;1.58;;;9.30;99.90;;;;;;5051948;28;20710;-71
2022/04/01 12:25:17;;;;;;;2.20;1.95;;;9.30;99.90;;;;;;5054344;28;20045;-70
2022/04/01 12:27:58;;;;;;;2.58;2.25;;;9.20;99.90;;;;;;5041778;28;20052;-70
2022/04/01 12:30:43;;;;;;;2.78;2.58;;;9.20;99.90;;;;;;5052640;28;20021;-70
2022/04/01 12:33:20;;;;;;;2.33;2.22;;;9.10;99.90;;;;;;5050592;28;20644;-70
2022/04/01 12:36:09;;;;;;;2.63;2.45;;;9.20;99.90;;;;;;5054480;28;20089;-70
2022/04/01 12:38:37;;;;;;;2.72;2.53;;;9.20;99.90;;;;;;5053325;28;20037;-70
2022/04/01 12:41:18;;;;;;;3.40;3.10;;;9.20;99.90;;;;;;5055501;28;20037;-70
2022/04/01 12:43:54;;;;;;;3.90;3.60;;;9.10;99.90;;;;;;5053846;28;20040;-70
2022/04/01 12:46:23;;;;;;;4.30;3.90;;;9.00;99.90;;;;;;5057197;28;22114;-69
2022/04/01 12:48:59;;;;;;;3.60;3.30;;;9.00;99.90;;;;;;5058326;28;20041;-71
2022/04/01 12:51:33;;;;;;;6.15;4.25;;;9.00;99.90;;;;;;5062515;28;20017;-70
2022/04/01 12:54:09;;;;;;;4.78;3.45;;;9.00;99.90;;;;;;5059498;28;20036;-71
2022/04/01 12:56:43;;;;;;;4.57;4.18;;;9.00;99.90;;;;;;5048162;28;20110;-70
2022/04/01 12:59:12;;;;;;;4.20;3.78;;;9.00;99.90;;;;;;5065720;28;20037;-70
2022/04/01 13:01:40;;;;;;;4.53;4.13;;;9.10;99.90;;;;;;5061453;28;20561;-71
2022/04/01 13:04:08;;;;;;;15.57;13.82;;;9.10;99.90;;;;;;5063551;28;20040;-70
2022/04/01 13:06:34;;;;;;;4.75;4.20;;;9.10;99.90;;;;;;5046236;28;20035;-70
2022/04/01 13:09:08;;;;;;;4.20;3.80;;;9.20;99.90;;;;;;5060511;28;20029;-70
2022/04/01 13:11:45;;;;;;;3.83;3.53;;;9.10;99.90;;;;;;5055707;28;20070;-71
2022/04/01 13:14:26;;;;;;;4.18;3.88;;;9.00;99.90;;;;;;5067190;28;20029;-72
2022/04/01 13:16:56;;;;;;;3.83;3.53;;;8.90;99.90;;;;;;5070366;28;20036;-71